METAR Data
IDs: Format: Raw Decoded Include TAF

Data at: 1613 UTC 21 Sep 2018

KJSV 211555Z AUTO 00000KT 3SM RA BKN009 OVC013 23/21 A3007 RMK AO2
KJSV 211535Z AUTO 00000KT 3SM RA SCT007 BKN012 OVC017 23/21 A3007 RMK AO2 LTG LTG DSNT S
KJSV 211515Z AUTO 00000KT 4SM -RA SCT005 SCT012 23/21 A3006 RMK AO2 LTG LTG DSNT E
KJSV 211455Z AUTO 07004KT 2SM +RA BKN005 BKN010 OVC065 23/21 A3006 RMK AO2 LTG LTG DSNT S
KJSV 211435Z AUTO 00000KT 10SM VCTS SCT070 24/21 A3005 RMK AO2 LTG DSNT E THRU SW
KJSV 211415Z AUTO 08004KT 10SM CLR 23/21 A3003 RMK AO2 LTG DSNT E THRU SW
KJSV 211355Z AUTO 00000KT 10SM -RA CLR 23/21 A3003 RMK AO2 LTG LTG DSNT S
KJSV 211335Z AUTO 06003KT 10SM RA SCT007 SCT013 SCT019 23/21 A3004 RMK AO2
KJSV 211315Z AUTO 00000KT 5SM -RA BKN008 BKN016 BKN026 23/20 A3004 RMK AO2
KJSV 211255Z AUTO 17003KT 7SM -RA SCT008 BKN011 OVC050 23/20 A3003 RMK AO2
KJSV 211235Z AUTO 00000KT 5SM -RA SCT010 OVC055 23/20 A3003 RMK AO2 LTG LTG DSNT S
KJSV 211215Z AUTO 00000KT 10SM SCT055 SCT075 23/20 A3001 RMK AO2 LTG DSNT NE S AND SW
KJSV 211155Z AUTO 08003KT 10SM CLR 23/21 A3000 RMK AO2
KJSV 211135Z AUTO 10003KT 10SM -RA CLR 23/20 A3000 RMK AO2
KJSV 211115Z AUTO 00000KT 10SM -TSDZ CLR 23/20 A3000 RMK AO2 LTG DSNT SW
KJSV 211055Z AUTO 00000KT 10SM CLR 23/20 A3000 RMK AO2
KJSV 211035Z AUTO 00000KT 10SM CLR 24/21 A3000 RMK AO2
KJSV 211015Z AUTO 00000KT 10SM CLR 24/21 A3000 RMK AO2
KJSV 210955Z AUTO 00000KT 10SM -RA CLR 24/21 A3000 RMK AO2
KJSV 210935Z AUTO 00000KT 10SM CLR 24/21 A3000 RMK AO2
KJSV 210915Z AUTO 00000KT 10SM CLR 24/20 A2999 RMK AO2
KJSV 210855Z AUTO 00000KT 10SM CLR 24/20 A2998 RMK AO2
KJSV 210835Z AUTO 00000KT 10SM CLR 24/20 A2997 RMK AO2
KJSV 210815Z AUTO 00000KT 10SM CLR 24/20 A2997 RMK AO2
KJSV 210755Z AUTO 00000KT 10SM CLR 24/21 A2996 RMK AO2
KJSV 210735Z AUTO 00000KT 10SM CLR 25/20 A2995 RMK AO2
KJSV 210715Z AUTO 00000KT 10SM CLR 25/20 A2995 RMK AO2
KJSV 210655Z AUTO 00000KT 10SM CLR 25/21 A2995 RMK AO2
KJSV 210635Z AUTO 00000KT 10SM CLR 25/21 A2995 RMK AO2
KJSV 210615Z AUTO 00000KT 10SM CLR 25/20 A2995 RMK AO2
KJSV 210555Z AUTO 00000KT 10SM CLR 25/20 A2995 RMK AO2
KJSV 210535Z AUTO 09003KT 10SM CLR 25/20 A2995 RMK AO2
KJSV 210515Z AUTO 00000KT 10SM CLR 26/20 A2995 RMK AO2
KJSV 210455Z AUTO 00000KT 10SM CLR 26/20 A2995 RMK AO2
KJSV 210435Z AUTO 15004KT 10SM CLR 27/20 A2995 RMK AO2
KJSV 210415Z AUTO 15004KT 10SM CLR 27/20 A2995 RMK AO2
KJSV 210355Z AUTO 15004KT 10SM CLR 27/20 A2995 RMK AO2
KJSV 210335Z AUTO 15004KT 10SM CLR 27/20 A2994 RMK AO2
KJSV 210315Z AUTO 14003KT 10SM CLR 27/20 A2993 RMK AO2
KJSV 210255Z AUTO 15003KT 10SM CLR 27/20 A2993 RMK AO2
KJSV 210235Z AUTO 15005KT 10SM CLR 27/20 A2993 RMK AO2
KJSV 210215Z AUTO 15005KT 10SM SCT075 26/20 A2992 RMK AO2
KJSV 210155Z AUTO 00000KT 10SM CLR 26/20 A2991 RMK AO2
KJSV 210135Z AUTO 08003KT 10SM CLR 27/20 A2990 RMK AO2
KJSV 210115Z AUTO 10003KT 10SM CLR 27/19 A2990 RMK AO2
KJSV 210055Z AUTO 11003KT 10SM CLR 28/19 A2989 RMK AO2
KJSV 210035Z AUTO 14004KT 10SM CLR 29/19 A2989 RMK AO2
KJSV 210015Z AUTO 15004KT 10SM CLR 30/19 A2988 RMK AO2
KJSV 202355Z AUTO 16006G16KT 10SM CLR 31/18 A2988 RMK AO2
KJSV 202335Z AUTO 14006KT 10SM CLR 32/18 A2987 RMK AO2
KJSV 202315Z AUTO 15013G18KT 10SM CLR 33/18 A2987 RMK AO2
KJSV 202255Z AUTO 14010KT 10SM CLR 33/18 A2987 RMK AO2
KJSV 202235Z AUTO 16006KT 10SM CLR 33/18 A2987 RMK AO2 LTG DSNT SE
KJSV 202215Z AUTO 18006KT 10SM CLR 34/18 A2988 RMK AO2
KJSV 202155Z AUTO 17005G14KT 10SM CLR 35/18 A2987 RMK AO2
KJSV 202135Z AUTO 16006KT 10SM CLR 36/18 A2988 RMK AO2
KJSV 202115Z AUTO 17005KT 10SM CLR 37/19 A2988 RMK AO2
KJSV 202055Z AUTO 18006KT 10SM CLR 36/19 A2989 RMK AO2
KJSV 202035Z AUTO 16006KT 10SM SCT060 36/19 A2989 RMK AO2
KJSV 202015Z AUTO 16004KT 10SM CLR 36/20 A2990 RMK AO2
KJSV 201955Z AUTO 16006KT 10SM CLR 36/20 A2991 RMK AO2
KJSV 201935Z AUTO 19005G15KT 10SM SCT050 35/20 A2992 RMK AO2
KJSV 201915Z AUTO 16008G14KT 10SM SCT055 35/19 A2993 RMK AO2
KJSV 201855Z AUTO 20009KT 10SM CLR 35/20 A2994 RMK AO2
KJSV 201835Z AUTO 18010G15KT 10SM SCT048 SCT060 35/20 A2995 RMK AO2
KJSV 201815Z AUTO 14007G14KT 10SM SCT048 SCT060 35/21 A2995 RMK AO2
KJSV 201755Z AUTO 18007KT 10SM CLR 34/21 A2996 RMK AO2
KJSV 201735Z AUTO 21009KT 10SM CLR 33/21 A2997 RMK AO2
KJSV 201715Z AUTO 15007KT 10SM CLR 33/21 A2997 RMK AO2
KJSV 201655Z AUTO 19006KT 10SM CLR 33/21 A2998 RMK AO2
KJSV 201635Z AUTO 17006KT 10SM CLR 32/21 A2998 RMK AO2
KJSV 201615Z AUTO 15004KT 10SM CLR 31/22 A2999 RMK AO2
KJSV 201555Z AUTO 18004KT 10SM CLR 31/22 A2999 RMK AO2
KJSV 201535Z AUTO 14004KT 10SM CLR 31/21 A2999 RMK AO2
KJSV 201515Z AUTO 15004KT 10SM CLR 31/22 A2999 RMK AO2
KJSV 201455Z AUTO 16004KT 10SM CLR 31/22 A2999 RMK AO2
KJSV 201435Z AUTO 15005KT 10SM CLR 30/22 A2998 RMK AO2
KJSV 201415Z AUTO 13003KT 10SM CLR 28/23 A2998 RMK AO2
KJSV 201355Z AUTO 12003KT 10SM CLR 27/22 A2998 RMK AO2
KJSV 201335Z AUTO 00000KT 10SM CLR 26/23 A2998 RMK AO2
KJSV 201315Z AUTO 00000KT 10SM CLR 25/22 A2997 RMK AO2
KJSV 201255Z AUTO 06003KT 7SM CLR 24/21 A2996 RMK AO2
KJSV 201235Z AUTO 00000KT 7SM CLR 23/21 A2996 RMK AO2
KJSV 201215Z AUTO 07003KT 7SM CLR 23/20 A2996 RMK AO2
KJSV 201155Z AUTO 09004KT 7SM CLR 23/21 A2996 RMK AO2
KJSV 201135Z AUTO 06004KT 10SM CLR 23/21 A2995 RMK AO2
KJSV 201115Z AUTO 07004KT 10SM CLR 23/21 A2995 RMK AO2
KJSV 201055Z AUTO 05004KT 10SM CLR 23/21 A2995 RMK AO2
KJSV 201035Z AUTO 00000KT 10SM CLR 23/21 A2994 RMK AO2
KJSV 201015Z AUTO 06003KT 10SM CLR 23/21 A2994 RMK AO2
KJSV 200955Z AUTO 00000KT 10SM CLR 23/21 A2994 RMK AO2
KJSV 200935Z AUTO 07003KT 10SM CLR 23/21 A2993 RMK AO2
KJSV 200915Z AUTO 09004KT 10SM CLR 24/21 A2993 RMK AO2
KJSV 200855Z AUTO 08003KT 10SM CLR 24/21 A2993 RMK AO2
KJSV 200835Z AUTO 08004KT 10SM CLR 24/21 A2993 RMK AO2
KJSV 200815Z AUTO 08004KT 10SM CLR 25/21 A2994 RMK AO2
KJSV 200755Z AUTO 00000KT 10SM CLR 25/21 A2994 RMK AO2
KJSV 200735Z AUTO 07003KT 10SM CLR 25/21 A2994 RMK AO2
KJSV 200715Z AUTO 07003KT 10SM CLR 25/20 A2994 RMK AO2
KJSV 200655Z AUTO 00000KT 10SM CLR 25/19 A2995 RMK AO2
KJSV 200635Z AUTO 00000KT 10SM CLR 25/20 A2995 RMK AO2
KJSV 200615Z AUTO 00000KT 10SM CLR 25/20 A2995 RMK AO2
KJSV 200555Z AUTO 00000KT 10SM CLR 26/20 A2994 RMK AO2
KJSV 200535Z AUTO 00000KT 10SM CLR 26/20 A2994 RMK AO2
KJSV 200515Z AUTO 07003KT 10SM CLR 27/20 A2994 RMK AO2
KJSV 200455Z AUTO 00000KT 10SM CLR 27/21 A2994 RMK AO2
KJSV 200435Z AUTO 12003KT 10SM CLR 28/20 A2993 RMK AO2
KJSV 200415Z AUTO 13003KT 10SM CLR 28/21 A2994 RMK AO2